Acton, Maine
Current Conditions -  °F | °C
As of 12:55 PM on Sunday 21 Dec 2014 (Local Time) from KSFM Reporting Station
Overcast Overcast  
Wind Chill: 22°   Ceiling: 4600
Heat Index: 30°   Visibility: 10mi
Dew Point: 18°   Wind: 9mph
Humidity: 60%   Direction: 360°N
Pressure: 30.3"   Gusts: NA
Location:  43.53°N, 70.91°W
Report Text: KSFM 211755Z AUTO 36008KT 10SM BKN046 OVC050 M01/M08 A3030 RMK AO1 11010 21060 57020
Loading
Personal Weather Stations






























Interactive Weather Map New forecast layout! Learn more

10-Day Weather Forecast

Advertisements
Track Severe Weather on mobile